createdAt,value
2019-03-13T00:01:45.347Z,37.70
2019-03-13T00:04:16.766Z,37.73
2019-03-13T00:06:48.255Z,39.73
2019-03-13T00:09:19.670Z,37.77
2019-03-13T00:11:51.051Z,36.33
2019-03-13T00:14:22.526Z,36.57
2019-03-13T00:16:54.104Z,37.43
2019-03-13T00:19:25.514Z,37.67
2019-03-13T00:21:57.055Z,37.70
2019-03-13T00:24:28.522Z,40.50
2019-03-13T00:26:59.869Z,37.63
2019-03-13T00:29:31.401Z,36.97
2019-03-13T00:32:03.695Z,35.40
2019-03-13T00:34:35.146Z,33.33
2019-03-13T00:37:06.681Z,34.13
2019-03-13T00:39:38.057Z,36.67
2019-03-13T00:42:11.001Z,37.47
2019-03-13T00:44:42.431Z,38.20
2019-03-13T00:47:14.561Z,38.73
2019-03-13T00:49:46.039Z,36.10
2019-03-13T00:52:17.368Z,37.90
2019-03-13T00:54:49.852Z,36.03
2019-03-13T00:57:21.186Z,33.43
2019-03-13T00:59:53.904Z,34.90
2019-03-13T01:02:34.945Z,35.17
2019-03-13T01:05:31.985Z,35.43
2019-03-13T01:08:03.357Z,40.23
2019-03-13T01:10:34.865Z,34.13
2019-03-13T01:13:06.298Z,42.07
2019-03-13T01:15:37.780Z,34.57
2019-03-13T01:18:09.983Z,33.23
2019-03-13T01:20:41.984Z,33.93
2019-03-13T01:23:14.183Z,36.83
2019-03-13T01:25:46.140Z,39.80
2019-03-13T01:28:18.254Z,38.00
2019-03-13T01:30:59.099Z,36.40
2019-03-13T01:33:31.356Z,38.73
2019-03-13T01:36:04.421Z,35.60
2019-03-13T01:38:36.419Z,35.97
2019-03-13T01:41:08.421Z,38.73
2019-03-13T01:43:40.577Z,40.40
2019-03-13T01:46:12.574Z,40.70
2019-03-13T01:48:44.740Z,40.13
2019-03-13T01:51:16.774Z,40.03
2019-03-13T01:53:48.699Z,37.00
2019-03-13T01:56:20.628Z,43.50
2019-03-13T01:58:53.939Z,41.43
2019-03-13T02:01:26.079Z,44.63
2019-03-13T02:03:58.228Z,37.70
2019-03-13T02:06:30.302Z,38.53
2019-03-13T02:09:02.500Z,39.50
2019-03-13T02:11:35.660Z,39.67
2019-03-13T02:14:07.827Z,41.30
2019-03-13T02:16:39.858Z,42.30
2019-03-13T02:19:11.932Z,47.27
2019-03-13T02:21:43.975Z,45.20
2019-03-13T02:24:16.097Z,45.70
2019-03-13T02:26:48.098Z,43.57
2019-03-13T02:29:20.438Z,42.13
2019-03-13T02:31:52.565Z,44.73
2019-03-13T02:34:24.661Z,50.47
2019-03-13T02:36:56.723Z,41.77
2019-03-13T02:39:29.272Z,42.53
2019-03-13T02:42:01.572Z,45.57
2019-03-13T02:44:34.060Z,41.13
2019-03-13T02:47:06.454Z,41.37
2019-03-13T02:49:38.412Z,50.47
2019-03-13T02:52:11.218Z,47.10
2019-03-13T02:54:43.341Z,46.93
2019-03-13T02:57:15.682Z,44.60
2019-03-13T02:59:47.740Z,45.67
2019-03-13T03:02:38.681Z,44.10
2019-03-13T03:05:10.935Z,42.27
2019-03-13T03:07:42.911Z,43.00
2019-03-13T03:10:15.315Z,45.33
2019-03-13T03:12:47.417Z,46.63
2019-03-13T03:15:19.855Z,41.77
2019-03-13T03:17:51.793Z,43.70
2019-03-13T03:20:23.649Z,42.63
2019-03-13T03:22:55.570Z,40.53
2019-03-13T03:25:27.657Z,42.73
2019-03-13T03:27:59.794Z,44.33
2019-03-13T03:30:31.887Z,42.30
2019-03-13T03:33:03.894Z,38.83
2019-03-13T03:35:36.007Z,40.73
2019-03-13T03:38:08.272Z,42.57
2019-03-13T03:40:40.317Z,45.23
2019-03-13T03:43:12.417Z,36.87
2019-03-13T03:45:44.410Z,41.30
2019-03-13T03:48:16.277Z,38.73
2019-03-13T03:50:48.356Z,39.20
2019-03-13T03:53:20.379Z,33.87
2019-03-13T03:55:52.293Z,36.50
2019-03-13T03:58:28.692Z,37.53
2019-03-13T04:00:58.047Z,38.13
2019-03-13T04:03:29.974Z,36.83
2019-03-13T04:06:02.133Z,35.63
2019-03-13T04:08:37.520Z,35.00
2019-03-13T04:11:07.660Z,34.30
2019-03-13T04:13:39.807Z,33.97
2019-03-13T04:16:11.594Z,34.57
2019-03-13T04:18:43.575Z,31.17
2019-03-13T04:21:15.437Z,32.57
2019-03-13T04:23:47.718Z,36.97
2019-03-13T04:26:19.726Z,30.23
2019-03-13T04:28:51.774Z,30.63
2019-03-13T04:31:23.797Z,32.97
2019-03-13T04:33:55.695Z,33.37
2019-03-13T04:36:27.594Z,32.70
2019-03-13T04:38:59.654Z,31.53
2019-03-13T04:41:31.679Z,28.03
2019-03-13T04:44:03.547Z,36.77
2019-03-13T04:46:35.456Z,30.13
2019-03-13T04:49:07.276Z,28.57
2019-03-13T04:51:39.412Z,29.67
2019-03-13T04:54:11.328Z,27.47
2019-03-13T04:56:43.428Z,27.67
2019-03-13T04:59:15.254Z,29.33
2019-03-13T05:01:47.314Z,27.60
2019-03-13T05:04:19.248Z,27.67
2019-03-13T05:06:51.110Z,28.27
2019-03-13T05:09:41.965Z,23.83
2019-03-13T05:12:13.864Z,26.87
2019-03-13T05:14:45.521Z,30.27
2019-03-13T05:17:17.518Z,29.33
2019-03-13T05:19:49.337Z,28.73
2019-03-13T05:22:21.313Z,28.73
2019-03-13T05:24:53.163Z,25.00
2019-03-13T05:27:24.993Z,25.23
2019-03-13T05:29:56.877Z,28.80
2019-03-13T05:32:28.719Z,26.53
2019-03-13T05:35:00.434Z,27.70
2019-03-13T05:37:32.518Z,29.93
2019-03-13T05:40:04.524Z,29.20
2019-03-13T05:42:36.457Z,26.07
2019-03-13T05:45:08.629Z,29.47
2019-03-13T05:47:40.718Z,24.87
2019-03-13T05:50:12.855Z,26.47
2019-03-13T05:52:45.443Z,23.47
2019-03-13T05:55:17.301Z,25.23
2019-03-13T05:57:49.405Z,23.37
2019-03-13T06:00:22.293Z,21.23
2019-03-13T06:02:54.293Z,21.70
2019-03-13T06:05:25.990Z,19.27
2019-03-13T06:07:58.227Z,19.70
2019-03-13T06:10:30.329Z,22.73
2019-03-13T06:13:02.364Z,22.37
2019-03-13T06:15:34.305Z,23.53
2019-03-13T06:18:09.642Z,20.23
2019-03-13T06:20:40.285Z,20.50
2019-03-13T06:23:12.433Z,19.53
2019-03-13T06:25:44.625Z,22.90
2019-03-13T06:28:16.649Z,18.97
2019-03-13T06:30:49.648Z,19.17
2019-03-13T06:33:21.740Z,17.43
2019-03-13T06:35:53.940Z,20.47
2019-03-13T06:38:26.021Z,20.83
2019-03-13T06:40:58.413Z,20.40
2019-03-13T06:43:30.528Z,22.07
2019-03-13T06:46:02.716Z,21.47
2019-03-13T06:48:35.226Z,20.30
2019-03-13T06:51:07.566Z,17.73
2019-03-13T06:53:39.729Z,16.77
2019-03-13T06:56:12.889Z,20.00
2019-03-13T06:58:51.726Z,25.77
2019-03-13T07:01:39.185Z,19.60
2019-03-13T07:04:33.336Z,17.40
2019-03-13T07:07:30.313Z,19.07
2019-03-13T07:10:36.519Z,16.03
2019-03-13T07:13:36.494Z,16.50
2019-03-13T07:16:31.025Z,18.50
2019-03-13T07:19:17.906Z,16.80
2019-03-13T07:21:57.825Z,14.73
2019-03-13T07:24:59.566Z,17.17
2019-03-13T07:27:54.276Z,13.43
2019-03-13T07:30:38.266Z,12.57
2019-03-13T07:33:28.805Z,14.77
2019-03-13T07:36:08.007Z,13.97
2019-03-13T07:38:50.499Z,13.30
2019-03-13T07:41:36.596Z,15.77
2019-03-13T07:44:30.435Z,11.97
2019-03-13T07:47:12.270Z,14.13
2019-03-13T07:50:02.394Z,12.50
2019-03-13T07:52:53.590Z,12.77
2019-03-13T07:55:43.241Z,11.20
2019-03-13T07:58:23.370Z,12.80
2019-03-13T08:01:12.604Z,13.13
2019-03-13T08:04:18.924Z,11.03
2019-03-13T08:07:02.311Z,12.87
2019-03-13T08:10:05.719Z,12.50
2019-03-13T08:13:05.687Z,12.07
2019-03-13T08:15:59.351Z,12.80
2019-03-13T08:18:56.141Z,10.00
2019-03-13T08:21:45.732Z,13.07
2019-03-13T08:24:35.014Z,13.20
2019-03-13T08:27:26.365Z,11.07
2019-03-13T08:30:15.969Z,13.73
2019-03-13T08:33:04.316Z,13.40
2019-03-13T08:35:54.977Z,10.50
2019-03-13T08:38:34.369Z,15.03
2019-03-13T08:41:28.235Z,13.90
2019-03-13T08:44:12.818Z,15.87
2019-03-13T08:47:06.273Z,12.67
2019-03-13T08:49:56.966Z,16.93
2019-03-13T08:52:37.430Z,11.37
2019-03-13T08:55:17.777Z,12.93
2019-03-13T08:58:02.298Z,12.73
2019-03-13T09:00:52.451Z,11.17
2019-03-13T09:03:32.212Z,12.53
2019-03-13T09:06:29.276Z,11.43
2019-03-13T09:09:26.176Z,12.17
2019-03-13T09:12:08.862Z,15.90
2019-03-13T09:15:01.809Z,13.07
2019-03-13T09:17:49.308Z,13.70
2019-03-13T09:20:32.121Z,11.87
2019-03-13T09:23:31.788Z,11.53
2019-03-13T09:26:21.460Z,15.00
2019-03-13T09:29:06.635Z,9.37
2019-03-13T09:31:55.161Z,13.67
2019-03-13T09:34:42.017Z,12.77
2019-03-13T09:37:31.248Z,14.50
2019-03-13T09:40:20.529Z,12.10
2019-03-13T09:43:00.111Z,12.83
2019-03-13T09:46:06.369Z,10.60
2019-03-13T09:49:15.458Z,10.03
2019-03-13T09:52:12.041Z,10.57
2019-03-13T09:55:15.180Z,12.33
2019-03-13T09:58:05.931Z,12.67
2019-03-13T10:01:08.834Z,13.27
2019-03-13T10:03:58.189Z,13.47
2019-03-13T10:06:46.009Z,15.33
2019-03-13T10:09:41.006Z,13.57
2019-03-13T10:12:21.819Z,10.97
2019-03-13T10:15:16.920Z,12.13
2019-03-13T10:18:10.738Z,11.47
2019-03-13T10:21:16.868Z,11.20
2019-03-13T10:24:07.477Z,9.20
2019-03-13T10:26:52.541Z,10.10
2019-03-13T10:29:46.176Z,17.07
2019-03-13T10:32:43.039Z,11.00
2019-03-13T10:35:34.211Z,10.70
2019-03-13T10:38:24.269Z,10.50
2019-03-13T10:41:21.102Z,12.30
2019-03-13T10:44:06.611Z,10.63
2019-03-13T10:46:57.650Z,10.40
2019-03-13T10:49:34.100Z,10.87
2019-03-13T10:52:34.331Z,9.90
2019-03-13T10:55:40.621Z,13.50
2019-03-13T10:58:22.601Z,12.20
2019-03-13T11:01:06.480Z,11.50
2019-03-13T11:03:48.987Z,10.97
2019-03-13T11:06:57.837Z,14.53
2019-03-13T11:09:51.388Z,12.13
2019-03-13T11:12:49.739Z,12.00
2019-03-13T11:15:30.729Z,10.00
2019-03-13T11:18:13.694Z,10.60
2019-03-13T11:21:07.325Z,11.77
2019-03-13T11:23:51.991Z,19.17
2019-03-13T11:26:52.142Z,12.10
2019-03-13T11:29:39.178Z,9.37
2019-03-13T11:32:19.807Z,11.90
2019-03-13T11:35:12.910Z,11.10
2019-03-13T11:38:06.431Z,12.37
2019-03-13T11:41:06.074Z,10.77
2019-03-13T11:43:53.191Z,13.50
2019-03-13T11:46:42.983Z,11.07
2019-03-13T11:49:29.931Z,14.33
2019-03-13T11:52:23.484Z,14.37
2019-03-13T11:55:29.666Z,14.63
2019-03-13T11:58:29.085Z,12.90
2019-03-13T12:01:25.816Z,13.60
2019-03-13T12:04:15.331Z,14.97
2019-03-13T12:07:21.891Z,15.40
2019-03-13T12:10:04.741Z,14.13
2019-03-13T12:12:54.249Z,15.67
2019-03-13T12:15:48.530Z,14.03
2019-03-13T12:18:42.811Z,14.90
2019-03-13T12:21:39.661Z,14.63
2019-03-13T12:24:29.361Z,16.57
2019-03-13T12:27:23.767Z,15.10
2019-03-13T12:30:26.534Z,16.03
2019-03-13T12:33:20.246Z,17.63
2019-03-13T12:36:10.757Z,14.73
2019-03-13T12:38:52.958Z,13.70
2019-03-13T12:41:43.241Z,16.33
2019-03-13T12:44:32.712Z,13.63
2019-03-13T12:47:26.473Z,16.53
2019-03-13T12:50:26.175Z,20.33
2019-03-13T12:53:10.075Z,14.20
2019-03-13T12:56:10.136Z,13.90
2019-03-13T12:59:04.216Z,15.20
2019-03-13T13:01:53.873Z,14.87
2019-03-13T13:04:50.942Z,15.60
2019-03-13T13:07:53.099Z,13.90
2019-03-13T13:10:43.991Z,13.73
2019-03-13T13:13:43.898Z,13.17
2019-03-13T13:16:32.661Z,12.13
2019-03-13T13:19:04.605Z,15.43
2019-03-13T13:21:37.026Z,13.30
2019-03-13T13:24:09.326Z,11.97
2019-03-13T13:26:41.213Z,13.13
2019-03-13T13:29:13.175Z,12.80
2019-03-13T13:31:45.250Z,9.77
2019-03-13T13:34:17.224Z,11.23
2019-03-13T13:36:49.185Z,9.33
2019-03-13T13:39:20.977Z,9.17
2019-03-13T13:41:52.800Z,9.57
2019-03-13T13:44:24.945Z,10.13
2019-03-13T13:46:57.116Z,10.03
2019-03-13T13:49:29.033Z,10.93
2019-03-13T13:52:01.151Z,10.27
2019-03-13T13:54:33.014Z,11.63
2019-03-13T13:57:06.066Z,8.53
2019-03-13T13:59:38.225Z,7.70
2019-03-13T14:02:11.333Z,7.43
2019-03-13T14:04:43.327Z,8.13
2019-03-13T14:07:15.294Z,9.70
2019-03-13T14:09:47.202Z,7.03
2019-03-13T14:12:20.153Z,5.97
2019-03-13T14:14:53.526Z,7.23
2019-03-13T14:17:25.332Z,6.37
2019-03-13T14:19:57.262Z,7.53
2019-03-13T14:22:29.596Z,6.03
2019-03-13T14:25:01.568Z,5.53
2019-03-13T14:27:33.673Z,6.53
2019-03-13T14:30:06.870Z,6.63
2019-03-13T14:32:38.874Z,7.77
2019-03-13T14:35:10.826Z,7.17
2019-03-13T14:37:42.880Z,8.87
2019-03-13T14:40:15.336Z,8.43
2019-03-13T14:42:47.240Z,5.50
2019-03-13T14:45:19.518Z,5.47
2019-03-13T14:47:51.971Z,7.00
2019-03-13T14:50:23.903Z,7.60
2019-03-13T14:52:57.352Z,7.67
2019-03-13T14:55:29.525Z,10.53
2019-03-13T14:58:01.521Z,6.90
2019-03-13T15:00:33.933Z,7.23
2019-03-13T15:03:06.273Z,6.50
2019-03-13T15:05:38.275Z,7.33
2019-03-13T15:08:10.416Z,6.57
2019-03-13T15:10:42.573Z,7.50
2019-03-13T15:13:14.481Z,6.93
2019-03-13T15:15:46.815Z,6.37
2019-03-13T15:18:18.795Z,7.90
2019-03-13T15:20:50.805Z,7.93
2019-03-13T15:23:22.637Z,6.60
2019-03-13T15:25:54.733Z,7.33
2019-03-13T15:28:26.573Z,6.43
2019-03-13T15:30:58.358Z,6.30
2019-03-13T15:33:30.195Z,7.07
2019-03-13T15:36:02.379Z,6.27
2019-03-13T15:38:34.310Z,7.47
2019-03-13T15:41:06.468Z,7.20
2019-03-13T15:43:38.218Z,7.80
2019-03-13T15:46:10.208Z,9.30
2019-03-13T15:48:42.206Z,7.00
2019-03-13T15:51:14.382Z,8.37
2019-03-13T15:53:46.472Z,7.93
2019-03-13T15:56:18.725Z,12.03
2019-03-13T15:58:50.549Z,8.47
2019-03-13T16:01:22.549Z,7.83
2019-03-13T16:03:54.649Z,9.17
2019-03-13T16:06:26.586Z,7.10
2019-03-13T16:08:58.413Z,6.57
2019-03-13T16:11:30.454Z,8.33
2019-03-13T16:14:02.478Z,8.07
2019-03-13T16:16:34.373Z,9.37
2019-03-13T16:19:06.313Z,8.50
2019-03-13T16:21:38.576Z,8.53
2019-03-13T16:24:10.596Z,9.13
2019-03-13T16:26:42.638Z,7.67
2019-03-13T16:29:15.045Z,8.67
2019-03-13T16:31:47.263Z,9.40
2019-03-13T16:34:19.757Z,9.63
2019-03-13T16:36:51.833Z,10.90
2019-03-13T16:39:25.056Z,10.23
2019-03-13T16:41:57.059Z,10.60
2019-03-13T16:44:29.120Z,12.07
2019-03-13T16:47:00.903Z,9.50
2019-03-13T16:49:33.288Z,13.37
2019-03-13T16:52:05.248Z,11.27
2019-03-13T16:54:37.295Z,8.13
2019-03-13T16:57:09.146Z,12.17
2019-03-13T16:59:41.369Z,10.77
2019-03-13T17:02:13.343Z,11.50
2019-03-13T17:04:45.478Z,12.90
2019-03-13T17:07:17.636Z,11.30
2019-03-13T17:09:49.501Z,14.60
2019-03-13T17:12:21.678Z,16.37
2019-03-13T17:14:53.564Z,13.10
2019-03-13T17:17:25.550Z,13.73
2019-03-13T17:19:57.542Z,14.53
2019-03-13T17:22:29.409Z,12.13
2019-03-13T17:25:01.490Z,14.10
2019-03-13T17:27:34.713Z,15.27
2019-03-13T17:30:08.597Z,17.33
2019-03-13T17:32:40.771Z,12.03
2019-03-13T17:35:13.249Z,15.40
2019-03-13T17:37:45.305Z,16.43
2019-03-13T17:40:19.155Z,17.00
2019-03-13T17:42:51.145Z,15.40
2019-03-13T17:45:23.831Z,15.77
2019-03-13T17:47:56.297Z,14.10
2019-03-13T17:50:28.435Z,13.73
2019-03-13T17:53:00.289Z,14.70
2019-03-13T17:55:32.431Z,19.60
2019-03-13T17:58:04.333Z,17.20
2019-03-13T18:00:42.470Z,27.93
2019-03-13T18:03:14.481Z,19.27
2019-03-13T18:05:46.514Z,22.60
2019-03-13T18:08:18.330Z,18.93
2019-03-13T18:10:50.271Z,20.10
2019-03-13T18:13:22.290Z,19.63
2019-03-13T18:15:54.758Z,15.93
2019-03-13T18:18:26.618Z,17.10
2019-03-13T18:20:58.808Z,18.10
2019-03-13T18:23:30.587Z,19.30
2019-03-13T18:26:02.493Z,16.37
2019-03-13T18:28:34.438Z,21.20
2019-03-13T18:31:06.709Z,17.53
2019-03-13T18:33:38.786Z,22.17
2019-03-13T18:36:14.097Z,20.10
2019-03-13T18:38:45.466Z,19.67
2019-03-13T18:41:17.601Z,20.30
2019-03-13T18:43:50.613Z,18.37
2019-03-13T18:46:22.820Z,20.17
2019-03-13T18:48:54.634Z,20.60
2019-03-13T18:51:26.628Z,23.83
2019-03-13T18:53:58.828Z,23.17
2019-03-13T18:56:38.525Z,22.80
2019-03-13T18:59:11.994Z,20.20
2019-03-13T19:01:44.923Z,19.77
2019-03-13T19:04:16.839Z,22.40
2019-03-13T19:06:49.426Z,20.70
2019-03-13T19:09:21.417Z,22.70
2019-03-13T19:11:53.221Z,24.40
2019-03-13T19:14:25.058Z,25.17
2019-03-13T19:16:56.861Z,24.90
2019-03-13T19:19:28.756Z,25.27
2019-03-13T19:22:00.998Z,23.23
2019-03-13T19:24:32.979Z,23.80
2019-03-13T19:27:05.137Z,25.73
2019-03-13T19:29:37.006Z,22.00
2019-03-13T19:32:08.778Z,23.93
2019-03-13T19:34:40.638Z,25.90
2019-03-13T19:37:12.526Z,25.23
2019-03-13T19:39:44.456Z,27.30
2019-03-13T19:42:17.504Z,29.03
2019-03-13T19:44:49.656Z,25.30
2019-03-13T19:47:21.448Z,23.93
2019-03-13T19:49:53.227Z,25.30
2019-03-13T19:52:26.233Z,25.23
2019-03-13T19:54:58.018Z,26.03
2019-03-13T19:57:29.769Z,27.30
2019-03-13T20:00:01.664Z,24.40
2019-03-13T20:02:35.160Z,23.10
2019-03-13T20:05:07.338Z,24.80
2019-03-13T20:07:39.340Z,25.70
2019-03-13T20:10:14.738Z,25.93
2019-03-13T20:12:46.786Z,21.70
2019-03-13T20:15:19.901Z,23.43
2019-03-13T20:17:51.983Z,25.40
2019-03-13T20:20:23.889Z,24.33
2019-03-13T20:22:58.496Z,24.57
2019-03-13T20:25:30.406Z,24.23
2019-03-13T20:28:02.238Z,26.83
2019-03-13T20:30:34.167Z,22.97
2019-03-13T20:33:06.089Z,23.27
2019-03-13T20:35:37.860Z,21.13
2019-03-13T20:38:09.737Z,23.40
2019-03-13T20:40:41.739Z,24.90
2019-03-13T20:43:15.146Z,24.20
2019-03-13T20:45:46.998Z,25.63
2019-03-13T20:48:20.074Z,23.43
2019-03-13T20:50:52.808Z,23.80
2019-03-13T20:53:24.668Z,23.20
2019-03-13T20:55:58.750Z,23.37
2019-03-13T20:58:30.048Z,24.47
2019-03-13T21:01:01.969Z,23.57
2019-03-13T21:03:34.447Z,24.33
2019-03-13T21:06:06.308Z,32.97
2019-03-13T21:08:38.278Z,22.50
2019-03-13T21:11:09.898Z,22.83
2019-03-13T21:13:41.708Z,23.17
2019-03-13T21:16:13.769Z,24.53
2019-03-13T21:18:45.648Z,22.47
2019-03-13T21:21:17.658Z,24.70
2019-03-13T21:23:49.558Z,25.30
2019-03-13T21:26:21.543Z,23.53
2019-03-13T21:28:53.495Z,24.80
2019-03-13T21:31:25.448Z,28.30
2019-03-13T21:33:57.398Z,26.23
2019-03-13T21:36:29.221Z,23.97
2019-03-13T21:39:00.858Z,28.20
2019-03-13T21:41:35.623Z,24.70
2019-03-13T21:44:07.768Z,29.50
2019-03-13T21:46:40.738Z,29.93
2019-03-13T21:49:13.848Z,25.03
2019-03-13T21:51:45.682Z,29.83
2019-03-13T21:54:17.599Z,28.63
2019-03-13T21:56:49.633Z,29.43
2019-03-13T21:59:21.579Z,27.67
2019-03-13T22:01:53.489Z,26.80
2019-03-13T22:04:26.216Z,28.43
2019-03-13T22:06:58.169Z,28.77
2019-03-13T22:09:30.290Z,30.17
2019-03-13T22:12:02.376Z,29.33
2019-03-13T22:14:34.168Z,30.93
2019-03-13T22:17:06.200Z,32.00
2019-03-13T22:19:38.007Z,34.17
2019-03-13T22:22:09.758Z,31.33
2019-03-13T22:24:41.568Z,33.17
2019-03-13T22:27:14.836Z,36.50
2019-03-13T22:29:46.818Z,32.57
2019-03-13T22:32:18.658Z,33.20
2019-03-13T22:34:50.549Z,31.20
2019-03-13T22:37:22.268Z,37.20
2019-03-13T22:39:54.238Z,32.27
2019-03-13T22:42:26.218Z,35.53
2019-03-13T22:44:58.118Z,31.97
2019-03-13T22:47:42.096Z,34.13
2019-03-13T22:50:04.683Z,34.13
2019-03-13T22:52:37.698Z,35.70
2019-03-13T22:55:09.768Z,35.27
2019-03-13T22:57:41.761Z,34.27
2019-03-13T23:00:28.016Z,36.67
2019-03-13T23:03:01.557Z,34.80
2019-03-13T23:05:36.009Z,35.10
2019-03-13T23:08:07.199Z,37.10
2019-03-13T23:10:39.978Z,33.90
2019-03-13T23:13:12.998Z,33.20
2019-03-13T23:15:45.348Z,32.43
2019-03-13T23:18:18.424Z,34.27
2019-03-13T23:20:51.098Z,29.53
2019-03-13T23:23:22.986Z,30.07
2019-03-13T23:25:54.856Z,31.83
2019-03-13T23:28:26.716Z,34.80
2019-03-13T23:30:58.698Z,30.43
2019-03-13T23:33:30.670Z,35.40
2019-03-13T23:36:02.538Z,33.80
2019-03-13T23:38:34.478Z,32.67
2019-03-13T23:41:06.846Z,31.77
2019-03-13T23:43:38.883Z,33.93
2019-03-13T23:46:10.708Z,30.00
2019-03-13T23:48:42.576Z,32.40
2019-03-13T23:51:14.503Z,29.67
2019-03-13T23:53:46.438Z,30.80
2019-03-13T23:56:18.348Z,29.80
2019-03-13T23:58:50.078Z,27.73
